Time;durP1;ratioP1;P1;durP2;ratioP2;P2;SDS_P1;SDS_P2;PMS_P1;PMS_P2;Temp;Humidity;BMP_temperature;BMP_pressure;BME280_temperature;BME280_humidity;BME280_pressure;Samples;Min_cycle;Max_cycle;Signal;HPM_P1;HPM_P2
2021/10/10 00:00:08;;;;;;;;;;;;;;;;;;2115328;28;19924;-54
2021/10/10 00:01:08;;;;;;;;;;;;;;;;;;2115074;28;20281;-54
2021/10/10 00:02:09;;;;;;;;;;;;;;;;;;2115358;28;19923;-54
2021/10/10 00:03:10;;;;;;;;;;;;;;;;;;2115107;28;19963;-55
2021/10/10 00:04:11;;;;;;;;;;;;;;;;;;2115232;28;19939;-55
2021/10/10 00:05:12;;;;;;;;;;;;;;;;;;2115131;28;20444;-54
2021/10/10 00:06:13;;;;;;;;;;;;;;;;;;2115135;28;19924;-53
2021/10/10 00:07:13;;;;;;;;;;;;;;;;;;2114888;28;20376;-54
2021/10/10 00:08:14;;;;;;;;;;;;;;;;;;2115123;28;20324;-53
2021/10/10 00:09:15;;;;;;;;;;;;;;;;;;2115046;28;19976;-54
2021/10/10 00:10:16;;;;;;;;;;;;;;;;;;2115290;28;19928;-54
2021/10/10 00:11:17;;;;;;;;;;;;;;;;;;2115082;28;19924;-52
2021/10/10 00:12:17;;;;;;;;;;;;;;;;;;2115123;28;19928;-54
2021/10/10 00:13:18;;;;;;;;;;;;;;;;;;2115124;28;19927;-53
2021/10/10 00:14:19;;;;;;;;;;;;;;;;;;2115212;28;20277;-53
2021/10/10 00:15:20;;;;;;;;;;;;;;;;;;2115161;28;19927;-53
2021/10/10 00:16:21;;;;;;;;;;;;;;;;;;2115083;28;19989;-52
2021/10/10 00:17:22;;;;;;;;;;;;;;;;;;2115054;28;20296;-54
2021/10/10 00:18:23;;;;;;;;;;;;;;;;;;2114911;28;19931;-55
2021/10/10 00:19:23;;;;;;;;;;;;;;;;;;2115333;28;20373;-54
2021/10/10 00:20:24;;;;;;;;;;;;;;;;;;2114844;28;20258;-52
2021/10/10 00:21:25;;;;;;;;;;;;;;;;;;2115133;28;19924;-54
2021/10/10 00:22:26;;;;;;;;;;;;;;;;;;2114971;28;19927;-52
2021/10/10 00:23:26;;;;;;;;;;;;;;;;;;2115100;28;19924;-54
2021/10/10 00:24:27;;;;;;;;;;;;;;;;;;2114859;28;20089;-54
2021/10/10 00:25:28;;;;;;;;;;;;;;;;;;2115029;28;19928;-53
2021/10/10 00:26:29;;;;;;;;;;;;;;;;;;2115081;28;20056;-54
2021/10/10 00:27:30;;;;;;;;;;;;;;;;;;2115112;28;19924;-53
2021/10/10 00:28:31;;;;;;;;;;;;;;;;;;2114951;28;19923;-54
2021/10/10 00:29:31;;;;;;;;;;;;;;;;;;2115141;28;19924;-52
2021/10/10 00:30:32;;;;;;;;;;;;;;;;;;2114843;28;19924;-54
2021/10/10 00:31:33;;;;;;;;;;;;;;;;;;2115131;28;20359;-54
2021/10/10 00:32:34;;;;;;;;;;;;;;;;;;2115048;28;20296;-54
2021/10/10 00:33:35;;;;;;;;;;;;;;;;;;2115104;28;20276;-53
2021/10/10 00:34:35;;;;;;;;;;;;;;;;;;2114845;28;20014;-54
2021/10/10 00:35:36;;;;;;;;;;;;;;;;;;2115109;28;20336;-52
2021/10/10 00:36:37;;;;;;;;;;;;;;;;;;2114829;28;20311;-53
2021/10/10 00:37:38;;;;;;;;;;;;;;;;;;2115161;28;19930;-52
2021/10/10 00:38:39;;;;;;;;;;;;;;;;;;2114873;28;19952;-53
2021/10/10 00:39:39;;;;;;;;;;;;;;;;;;2114887;28;19963;-54
2021/10/10 00:40:40;;;;;;;;;;;;;;;;;;2114826;28;19928;-54
2021/10/10 00:41:41;;;;;;;;;;;;;;;;;;2115127;28;19976;-53
2021/10/10 00:42:42;;;;;;;;;;;;;;;;;;2114874;28;19924;-53
2021/10/10 00:43:43;;;;;;;;;;;;;;;;;;2114968;28;20188;-54
2021/10/10 00:44:44;;;;;;;;;;;;;;;;;;2114885;28;19924;-53
2021/10/10 00:45:44;;;;;;;;;;;;;;;;;;2114738;28;19949;-53
2021/10/10 00:46:45;;;;;;;;;;;;;;;;;;2115130;28;19924;-53
2021/10/10 00:47:46;;;;;;;;;;;;;;;;;;2114847;28;19946;-54
2021/10/10 00:48:47;;;;;;;;;;;;;;;;;;2115013;28;20280;-52
2021/10/10 00:49:48;;;;;;;;;;;;;;;;;;2114852;28;19923;-54
2021/10/10 00:50:48;;;;;;;;;;;;;;;;;;2114864;28;19973;-54
2021/10/10 00:51:49;;;;;;;;;;;;;;;;;;2114632;28;19923;-52
2021/10/10 00:52:50;;;;;;;;;;;;;;;;;;2114925;28;19931;-53
2021/10/10 00:53:51;;;;;;;;;;;;;;;;;;2114632;28;19924;-54
2021/10/10 00:54:52;;;;;;;;;;;;;;;;;;2114837;28;19923;-53
2021/10/10 00:55:52;;;;;;;;;;;;;;;;;;2114709;28;19928;-53
2021/10/10 00:56:54;;;;;;;;;;;;;;;;;;2114939;28;20278;-54
2021/10/10 00:57:55;;;;;;;;;;;;;;;;;;2114713;28;20018;-54
2021/10/10 00:58:56;;;;;;;;;;;;;;;;;;2114926;28;19931;-53
2021/10/10 00:59:57;;;;;;;;;;;;;;;;;;2114906;28;19924;-54
2021/10/10 01:00:58;;;;;;;;;;;;;;;;;;2114813;28;19931;-54
2021/10/10 01:01:58;;;;;;;;;;;;;;;;;;2114832;28;19977;-54
2021/10/10 01:03:00;;;;;;;;;;;;;;;;;;2114928;28;20326;-53
2021/10/10 01:04:00;;;;;;;;;;;;;;;;;;2114503;28;19963;-54
2021/10/10 01:05:01;;;;;;;;;;;;;;;;;;2114880;28;19924;-54
2021/10/10 01:06:02;;;;;;;;;;;;;;;;;;2114621;28;19968;-54
2021/10/10 01:07:03;;;;;;;;;;;;;;;;;;2114726;28;19928;-53
2021/10/10 01:08:04;;;;;;;;;;;;;;;;;;2114557;28;19924;-54
2021/10/10 01:09:05;;;;;;;;;;;;;;;;;;2114970;28;19927;-54
2021/10/10 01:10:05;;;;;;;;;;;;;;;;;;2114700;28;20384;-54
2021/10/10 01:11:06;;;;;;;;;;;;;;;;;;2115018;28;20184;-54
2021/10/10 01:12:07;;;;;;;;;;;;;;;;;;2114871;28;20270;-54
2021/10/10 01:13:08;;;;;;;;;;;;;;;;;;2114867;28;19959;-53
2021/10/10 01:14:09;;;;;;;;;;;;;;;;;;2114759;28;19928;-54
2021/10/10 01:15:10;;;;;;;;;;;;;;;;;;2114672;28;20005;-54
2021/10/10 01:16:10;;;;;;;;;;;;;;;;;;2114637;28;19928;-52
2021/10/10 01:17:11;;;;;;;;;;;;;;;;;;2114559;28;19927;-54
2021/10/10 01:18:12;;;;;;;;;;;;;;;;;;2114640;28;20381;-54
2021/10/10 01:19:13;;;;;;;;;;;;;;;;;;2114027;28;20181;-54
2021/10/10 01:20:14;;;;;;;;;;;;;;;;;;2114674;28;19924;-54
2021/10/10 01:21:15;;;;;;;;;;;;;;;;;;2114453;28;19924;-53
2021/10/10 01:22:16;;;;;;;;;;;;;;;;;;2114623;28;19923;-54
2021/10/10 01:23:16;;;;;;;;;;;;;;;;;;2114602;28;20398;-54
2021/10/10 01:24:17;;;;;;;;;;;;;;;;;;2114834;28;19977;-54
2021/10/10 01:25:18;;;;;;;;;;;;;;;;;;2114672;28;19924;-54
2021/10/10 01:26:19;;;;;;;;;;;;;;;;;;2114486;28;19935;-54
2021/10/10 01:27:20;;;;;;;;;;;;;;;;;;2114545;28;19927;-54
2021/10/10 01:28:20;;;;;;;;;;;;;;;;;;2114665;28;19924;-54
2021/10/10 01:29:21;;;;;;;;;;;;;;;;;;2114742;28;20508;-54
2021/10/10 01:30:22;;;;;;;;;;;;;;;;;;2114464;28;20445;-54
2021/10/10 01:31:23;;;;;;;;;;;;;;;;;;2114655;28;19952;-52
2021/10/10 01:32:24;;;;;;;;;;;;;;;;;;2114726;28;20085;-52
2021/10/10 01:33:24;;;;;;;;;;;;;;;;;;2114594;28;20287;-54
2021/10/10 01:34:25;;;;;;;;;;;;;;;;;;2114750;28;20269;-52
2021/10/10 01:35:26;;;;;;;;;;;;;;;;;;2114404;28;19924;-51
2021/10/10 01:36:27;;;;;;;;;;;;;;;;;;2114552;28;19928;-54
2021/10/10 01:37:28;;;;;;;;;;;;;;;;;;2114623;28;19930;-54
2021/10/10 01:38:28;;;;;;;;;;;;;;;;;;2114713;28;19928;-55
2021/10/10 01:39:29;;;;;;;;;;;;;;;;;;2114528;28;20298;-52
2021/10/10 01:40:30;;;;;;;;;;;;;;;;;;2114602;28;20291;-52
2021/10/10 01:41:31;;;;;;;;;;;;;;;;;;2114928;28;20462;-54
2021/10/10 01:42:32;;;;;;;;;;;;;;;;;;2114383;28;19924;-53
2021/10/10 01:43:32;;;;;;;;;;;;;;;;;;2114632;28;19928;-54
2021/10/10 01:44:33;;;;;;;;;;;;;;;;;;2114495;28;19923;-54
2021/10/10 01:45:34;;;;;;;;;;;;;;;;;;2114679;28;20296;-54
2021/10/10 01:46:35;;;;;;;;;;;;;;;;;;2114316;28;19924;-54
2021/10/10 01:47:36;;;;;;;;;;;;;;;;;;2114686;28;19924;-54
2021/10/10 01:48:37;;;;;;;;;;;;;;;;;;2114246;28;19973;-54
2021/10/10 01:49:37;;;;;;;;;;;;;;;;;;2114604;28;19928;-54
2021/10/10 01:50:38;;;;;;;;;;;;;;;;;;2114206;28;19924;-55
2021/10/10 01:51:39;;;;;;;;;;;;;;;;;;2114673;28;19934;-54
2021/10/10 01:52:40;;;;;;;;;;;;;;;;;;2114341;28;19968;-55
2021/10/10 01:53:41;;;;;;;;;;;;;;;;;;2114605;28;20539;-54
2021/10/10 01:54:42;;;;;;;;;;;;;;;;;;2114334;28;20318;-54
2021/10/10 01:55:43;;;;;;;;;;;;;;;;;;2114455;28;19924;-53
2021/10/10 01:56:44;;;;;;;;;;;;;;;;;;2114423;28;20002;-54
2021/10/10 01:57:45;;;;;;;;;;;;;;;;;;2114637;28;19923;-54
2021/10/10 01:58:46;;;;;;;;;;;;;;;;;;2114607;28;19951;-54
2021/10/10 01:59:46;;;;;;;;;;;;;;;;;;2114639;28;20356;-53
2021/10/10 02:00:47;;;;;;;;;;;;;;;;;;2114368;28;20273;-54
2021/10/10 02:01:48;;;;;;;;;;;;;;;;;;2114579;28;19939;-54
2021/10/10 02:02:49;;;;;;;;;;;;;;;;;;2114384;28;20345;-54
2021/10/10 02:03:50;;;;;;;;;;;;;;;;;;2114404;28;19924;-54
2021/10/10 02:04:51;;;;;;;;;;;;;;;;;;2114370;28;19924;-52
2021/10/10 02:05:52;;;;;;;;;;;;;;;;;;2114525;28;20466;-54
2021/10/10 02:06:53;;;;;;;;;;;;;;;;;;2114231;28;20434;-54
2021/10/10 02:07:54;;;;;;;;;;;;;;;;;;2114386;28;19947;-55
2021/10/10 02:08:55;;;;;;;;;;;;;;;;;;2114376;28;19984;-54
2021/10/10 02:09:56;;;;;;;;;;;;;;;;;;2114457;28;19928;-53
2021/10/10 02:10:57;;;;;;;;;;;;;;;;;;2114271;28;20377;-55
2021/10/10 02:11:57;;;;;;;;;;;;;;;;;;2114269;28;20384;-54
2021/10/10 02:12:58;;;;;;;;;;;;;;;;;;2114362;28;19927;-54
2021/10/10 02:13:59;;;;;;;;;;;;;;;;;;2114365;28;20304;-52
2021/10/10 02:15:00;;;;;;;;;;;;;;;;;;2114392;28;19923;-55
2021/10/10 02:16:01;;;;;;;;;;;;;;;;;;2114123;28;19924;-54
2021/10/10 02:17:02;;;;;;;;;;;;;;;;;;2114460;28;19924;-53
2021/10/10 02:18:02;;;;;;;;;;;;;;;;;;2114253;28;19923;-55
2021/10/10 02:19:03;;;;;;;;;;;;;;;;;;2114310;28;19923;-54
2021/10/10 02:20:04;;;;;;;;;;;;;;;;;;2114290;28;19928;-53
2021/10/10 02:21:05;;;;;;;;;;;;;;;;;;2114174;28;19931;-53
2021/10/10 02:22:06;;;;;;;;;;;;;;;;;;2114172;28;19927;-53
2021/10/10 02:23:06;;;;;;;;;;;;;;;;;;2114277;28;19924;-53
2021/10/10 02:24:08;;;;;;;;;;;;;;;;;;2114207;28;20365;-54
2021/10/10 02:25:08;;;;;;;;;;;;;;;;;;2114202;28;19954;-54
2021/10/10 02:26:09;;;;;;;;;;;;;;;;;;2114144;28;19995;-54
2021/10/10 02:27:10;;;;;;;;;;;;;;;;;;2114222;28;19927;-54
2021/10/10 02:28:11;;;;;;;;;;;;;;;;;;2114277;28;20354;-54
2021/10/10 02:29:12;;;;;;;;;;;;;;;;;;2114318;28;19924;-54
2021/10/10 02:30:13;;;;;;;;;;;;;;;;;;2114236;28;20273;-54
2021/10/10 02:31:13;;;;;;;;;;;;;;;;;;2114117;28;19924;-54
2021/10/10 02:32:14;;;;;;;;;;;;;;;;;;2114234;28;19924;-54
2021/10/10 02:33:15;;;;;;;;;;;;;;;;;;2114331;28;19931;-55
2021/10/10 02:34:18;;;;;;;;;;;;;;;;;;2114299;28;19924;-54
2021/10/10 02:35:19;;;;;;;;;;;;;;;;;;2114256;28;20014;-54
2021/10/10 02:36:20;;;;;;;;;;;;;;;;;;2114287;28;20028;-54
2021/10/10 02:37:20;;;;;;;;;;;;;;;;;;2114131;28;19923;-54
2021/10/10 02:38:21;;;;;;;;;;;;;;;;;;2114308;28;19924;-54
2021/10/10 02:39:22;;;;;;;;;;;;;;;;;;2114121;28;20341;-53
2021/10/10 02:40:23;;;;;;;;;;;;;;;;;;2114092;28;19924;-54
2021/10/10 02:41:23;;;;;;;;;;;;;;;;;;2114018;28;19969;-54
2021/10/10 02:42:24;;;;;;;;;;;;;;;;;;2114290;28;19959;-53
2021/10/10 02:43:25;;;;;;;;;;;;;;;;;;2114126;28;19923;-52
2021/10/10 02:44:27;;;;;;;;;;;;;;;;;;2114218;28;19924;-54
2021/10/10 02:45:27;;;;;;;;;;;;;;;;;;2113973;28;20035;-54
2021/10/10 02:46:28;;;;;;;;;;;;;;;;;;2114307;28;20369;-54
2021/10/10 02:47:29;;;;;;;;;;;;;;;;;;2113977;28;20019;-54
2021/10/10 02:48:30;;;;;;;;;;;;;;;;;;2114355;28;19924;-54
2021/10/10 02:49:31;;;;;;;;;;;;;;;;;;2113902;28;19924;-52
2021/10/10 02:50:31;;;;;;;;;;;;;;;;;;2114185;28;19923;-54
2021/10/10 02:51:32;;;;;;;;;;;;;;;;;;2113928;28;19924;-54
2021/10/10 02:52:33;;;;;;;;;;;;;;;;;;2114378;28;19970;-55
2021/10/10 02:53:34;;;;;;;;;;;;;;;;;;2113898;28;20293;-54
2021/10/10 02:54:35;;;;;;;;;;;;;;;;;;2114321;28;20294;-54
2021/10/10 02:55:35;;;;;;;;;;;;;;;;;;2114022;28;19931;-54
2021/10/10 02:56:36;;;;;;;;;;;;;;;;;;2114264;28;20299;-54
2021/10/10 02:57:37;;;;;;;;;;;;;;;;;;2113939;28;19924;-55
2021/10/10 02:58:38;;;;;;;;;;;;;;;;;;2114174;28;19928;-54
2021/10/10 02:59:39;;;;;;;;;;;;;;;;;;2114003;28;20346;-53
2021/10/10 03:00:40;;;;;;;;;;;;;;;;;;2114150;28;19935;-54
2021/10/10 03:01:41;;;;;;;;;;;;;;;;;;2114108;28;19967;-54
2021/10/10 03:02:45;;;;;;;;;;;;;;;;;;2114236;28;19928;-54
2021/10/10 03:03:46;;;;;;;;;;;;;;;;;;2114031;28;19967;-54
2021/10/10 03:04:47;;;;;;;;;;;;;;;;;;2114106;28;19934;-54
2021/10/10 03:05:48;;;;;;;;;;;;;;;;;;2114080;28;19924;-54
2021/10/10 03:06:49;;;;;;;;;;;;;;;;;;2114283;28;19928;-54
2021/10/10 03:07:50;;;;;;;;;;;;;;;;;;2114094;28;19932;-54
2021/10/10 03:08:50;;;;;;;;;;;;;;;;;;2114103;28;20104;-54
2021/10/10 03:09:51;;;;;;;;;;;;;;;;;;2113991;28;19924;-54
2021/10/10 03:10:52;;;;;;;;;;;;;;;;;;2114019;28;19924;-54
2021/10/10 03:11:53;;;;;;;;;;;;;;;;;;2114123;28;20304;-54
2021/10/10 03:12:53;;;;;;;;;;;;;;;;;;2114010;28;19924;-54
2021/10/10 03:13:54;;;;;;;;;;;;;;;;;;2113934;28;19932;-54
2021/10/10 03:14:58;;;;;;;;;;;;;;;;;;2114131;28;19931;-55
2021/10/10 03:15:59;;;;;;;;;;;;;;;;;;2114027;28;19934;-54
2021/10/10 03:16:59;;;;;;;;;;;;;;;;;;2113946;28;19935;-54
2021/10/10 03:18:00;;;;;;;;;;;;;;;;;;2114128;28;19930;-54
2021/10/10 03:19:01;;;;;;;;;;;;;;;;;;2113774;28;19923;-54
2021/10/10 03:20:02;;;;;;;;;;;;;;;;;;2114139;28;19930;-53
2021/10/10 03:21:02;;;;;;;;;;;;;;;;;;2113751;28;19924;-54
2021/10/10 03:22:03;;;;;;;;;;;;;;;;;;2114132;28;20002;-54
2021/10/10 03:23:04;;;;;;;;;;;;;;;;;;2113862;28;19968;-53
2021/10/10 03:24:05;;;;;;;;;;;;;;;;;;2113970;28;19968;-54
2021/10/10 03:25:06;;;;;;;;;;;;;;;;;;2113917;28;19935;-54
2021/10/10 03:26:07;;;;;;;;;;;;;;;;;;2114089;28;19931;-54
2021/10/10 03:27:08;;;;;;;;;;;;;;;;;;2113920;28;20376;-55
2021/10/10 03:28:08;;;;;;;;;;;;;;;;;;2114099;28;19928;-54
2021/10/10 03:29:09;;;;;;;;;;;;;;;;;;2113905;28;19927;-54
2021/10/10 03:30:10;;;;;;;;;;;;;;;;;;2114035;28;19930;-54
2021/10/10 03:31:11;;;;;;;;;;;;;;;;;;2113882;28;19936;-54
2021/10/10 03:32:12;;;;;;;;;;;;;;;;;;2114007;28;19927;-54
2021/10/10 03:33:13;;;;;;;;;;;;;;;;;;2113993;28;19968;-54
2021/10/10 03:34:13;;;;;;;;;;;;;;;;;;2113790;28;20288;-55
2021/10/10 03:35:14;;;;;;;;;;;;;;;;;;2114050;28;19924;-54
2021/10/10 03:36:15;;;;;;;;;;;;;;;;;;2113848;28;19923;-54
2021/10/10 03:37:16;;;;;;;;;;;;;;;;;;2113930;28;19934;-54
2021/10/10 03:38:17;;;;;;;;;;;;;;;;;;2113944;28;19924;-54
2021/10/10 03:39:17;;;;;;;;;;;;;;;;;;2113930;28;20214;-54
2021/10/10 03:40:18;;;;;;;;;;;;;;;;;;2113832;28;19927;-55
2021/10/10 03:41:19;;;;;;;;;;;;;;;;;;2113751;28;19927;-54
2021/10/10 03:42:20;;;;;;;;;;;;;;;;;;2114654;28;19964;-55
2021/10/10 03:43:21;;;;;;;;;;;;;;;;;;2115345;28;20369;-54
2021/10/10 03:44:21;;;;;;;;;;;;;;;;;;2115407;28;19924;-55
2021/10/10 03:45:22;;;;;;;;;;;;;;;;;;2115172;28;20380;-53
2021/10/10 03:46:23;;;;;;;;;;;;;;;;;;2115235;28;19924;-54
2021/10/10 03:47:24;;;;;;;;;;;;;;;;;;2115389;28;19924;-54
2021/10/10 03:48:25;;;;;;;;;;;;;;;;;;2115272;28;19953;-53
2021/10/10 03:49:26;;;;;;;;;;;;;;;;;;2115220;28;19923;-55
2021/10/10 03:50:27;;;;;;;;;;;;;;;;;;2115037;28;20008;-55
2021/10/10 03:51:28;;;;;;;;;;;;;;;;;;2115245;28;19924;-55
2021/10/10 03:52:29;;;;;;;;;;;;;;;;;;2115255;28;19928;-53
2021/10/10 03:53:37;;;;;;;;;;;;;;;;;;2115132;28;19928;-54
2021/10/10 03:55:07;;;;;;;;;;;;;;;;;;2115200;28;20589;-54
2021/10/10 03:56:08;;;;;;;;;;;;;;;;;;2115178;28;20484;-54
2021/10/10 03:57:09;;;;;;;;;;;;;;;;;;2115130;28;19951;-54
2021/10/10 03:58:14;;;;;;;;;;;;;;;;;;2115320;28;20269;-53
2021/10/10 03:59:14;;;;;;;;;;;;;;;;;;2115144;28;20018;-54
2021/10/10 04:00:15;;;;;;;;;;;;;;;;;;2115398;28;19924;-54
2021/10/10 04:01:16;;;;;;;;;;;;;;;;;;2115105;28;20283;-54
2021/10/10 04:02:17;;;;;;;;;;;;;;;;;;2115434;28;20304;-53
2021/10/10 04:03:20;;;;;;;;;;;;;;;;;;2115106;28;19923;-54
2021/10/10 04:04:21;;;;;;;;;;;;;;;;;;2115280;28;19924;-54
2021/10/10 04:05:24;;;;;;;;;;;;;;;;;;2115126;28;20362;-54
2021/10/10 04:06:25;;;;;;;;;;;;;;;;;;2115422;28;19923;-54
2021/10/10 04:07:26;;;;;;;;;;;;;;;;;;2115158;28;19924;-54
2021/10/10 04:08:27;;;;;;;;;;;;;;;;;;2115118;28;20276;-54
2021/10/10 04:09:27;;;;;;;;;;;;;;;;;;2115032;28;19968;-54
2021/10/10 04:10:28;;;;;;;;;;;;;;;;;;2115152;28;19924;-54
2021/10/10 04:11:29;;;;;;;;;;;;;;;;;;2115094;28;20460;-54
2021/10/10 04:12:30;;;;;;;;;;;;;;;;;;2115198;28;20350;-54
2021/10/10 04:13:30;;;;;;;;;;;;;;;;;;2114991;28;20060;-53
2021/10/10 04:14:31;;;;;;;;;;;;;;;;;;2115091;28;19928;-54
2021/10/10 04:15:32;;;;;;;;;;;;;;;;;;2115024;28;19923;-54
2021/10/10 04:16:33;;;;;;;;;;;;;;;;;;2115259;28;19954;-54
2021/10/10 04:17:34;;;;;;;;;;;;;;;;;;2114865;28;19977;-54
2021/10/10 04:18:36;;;;;;;;;;;;;;;;;;2115272;28;19928;-54
2021/10/10 04:19:36;;;;;;;;;;;;;;;;;;2114929;28;19970;-54
2021/10/10 04:20:37;;;;;;;;;;;;;;;;;;2115357;28;19969;-55
2021/10/10 04:21:38;;;;;;;;;;;;;;;;;;2114981;28;20391;-53
2021/10/10 04:22:39;;;;;;;;;;;;;;;;;;2115116;28;19927;-55
2021/10/10 04:23:39;;;;;;;;;;;;;;;;;;2115120;28;20372;-55
2021/10/10 04:24:40;;;;;;;;;;;;;;;;;;2115183;28;19947;-54
2021/10/10 04:25:41;;;;;;;;;;;;;;;;;;2115091;28;19953;-54
2021/10/10 04:26:42;;;;;;;;;;;;;;;;;;2115126;28;19924;-54
2021/10/10 04:27:43;;;;;;;;;;;;;;;;;;2115239;28;19931;-55
2021/10/10 04:28:44;;;;;;;;;;;;;;;;;;2114895;28;19930;-54
2021/10/10 04:29:44;;;;;;;;;;;;;;;;;;2115210;28;20006;-54
2021/10/10 04:30:45;;;;;;;;;;;;;;;;;;2114849;28;20322;-53
2021/10/10 04:31:46;;;;;;;;;;;;;;;;;;2115138;28;19928;-54
2021/10/10 04:32:47;;;;;;;;;;;;;;;;;;2115192;28;19924;-53
2021/10/10 04:33:47;;;;;;;;;;;;;;;;;;2115079;28;20262;-53
2021/10/10 04:34:48;;;;;;;;;;;;;;;;;;2114859;28;19924;-53
2021/10/10 04:35:49;;;;;;;;;;;;;;;;;;2114966;28;19923;-54
2021/10/10 04:36:50;;;;;;;;;;;;;;;;;;2114935;28;19938;-54
2021/10/10 04:37:51;;;;;;;;;;;;;;;;;;2115110;28;19930;-55
2021/10/10 04:38:52;;;;;;;;;;;;;;;;;;2115015;28;20399;-55
2021/10/10 04:39:52;;;;;;;;;;;;;;;;;;2114932;28;19924;-54
2021/10/10 04:40:53;;;;;;;;;;;;;;;;;;2114899;28;20296;-54
2021/10/10 04:41:54;;;;;;;;;;;;;;;;;;2114926;28;20331;-54
2021/10/10 04:42:55;;;;;;;;;;;;;;;;;;2114995;28;20277;-54
2021/10/10 04:43:56;;;;;;;;;;;;;;;;;;2115060;28;19938;-53
2021/10/10 04:44:56;;;;;;;;;;;;;;;;;;2114994;28;19928;-54
2021/10/10 04:45:57;;;;;;;;;;;;;;;;;;2114794;28;20381;-54
2021/10/10 04:46:58;;;;;;;;;;;;;;;;;;2115030;28;19923;-55
2021/10/10 04:47:59;;;;;;;;;;;;;;;;;;2114994;28;19927;-54
2021/10/10 04:49:00;;;;;;;;;;;;;;;;;;2114854;28;20392;-54
2021/10/10 04:50:01;;;;;;;;;;;;;;;;;;2114928;28;20319;-54
2021/10/10 04:51:01;;;;;;;;;;;;;;;;;;2114817;28;19972;-54
2021/10/10 04:52:02;;;;;;;;;;;;;;;;;;2114835;28;19977;-54
2021/10/10 04:53:03;;;;;;;;;;;;;;;;;;2114956;28;19946;-54
2021/10/10 04:54:04;;;;;;;;;;;;;;;;;;2113530;28;19923;-54
2021/10/10 04:55:05;;;;;;;;;;;;;;;;;;2114947;28;20404;-55
2021/10/10 04:56:06;;;;;;;;;;;;;;;;;;2114583;28;19971;-53
2021/10/10 04:57:07;;;;;;;;;;;;;;;;;;2115089;28;20349;-55
2021/10/10 04:58:08;;;;;;;;;;;;;;;;;;2114658;28;19924;-54
2021/10/10 04:59:08;;;;;;;;;;;;;;;;;;2115039;28;19923;-55
2021/10/10 05:00:09;;;;;;;;;;;;;;;;;;2114558;28;19928;-54
2021/10/10 05:01:10;;;;;;;;;;;;;;;;;;2114953;28;20475;-54
2021/10/10 05:02:11;;;;;;;;;;;;;;;;;;2114677;28;19996;-54
2021/10/10 05:03:12;;;;;;;;;;;;;;;;;;2115226;28;19925;-55
2021/10/10 05:04:13;;;;;;;;;;;;;;;;;;2114440;28;19931;-54
2021/10/10 05:05:14;;;;;;;;;;;;;;;;;;2115074;28;19930;-55
2021/10/10 05:06:15;;;;;;;;;;;;;;;;;;2114556;28;19939;-54
2021/10/10 05:07:15;;;;;;;;;;;;;;;;;;2114888;28;19923;-55
2021/10/10 05:08:16;;;;;;;;;;;;;;;;;;2114698;28;19973;-54
2021/10/10 05:09:17;;;;;;;;;;;;;;;;;;2114807;28;19923;-55
2021/10/10 05:10:18;;;;;;;;;;;;;;;;;;2114681;28;19923;-54
2021/10/10 05:11:19;;;;;;;;;;;;;;;;;;2114798;28;19923;-54
2021/10/10 05:12:20;;;;;;;;;;;;;;;;;;2114615;28;20334;-52
2021/10/10 05:13:20;;;;;;;;;;;;;;;;;;2114762;28;19927;-54
2021/10/10 05:14:21;;;;;;;;;;;;;;;;;;2114615;28;19924;-54
2021/10/10 05:15:22;;;;;;;;;;;;;;;;;;2114901;28;20345;-54
2021/10/10 05:16:23;;;;;;;;;;;;;;;;;;2114727;28;20041;-54
2021/10/10 05:17:24;;;;;;;;;;;;;;;;;;2114775;28;19976;-54
2021/10/10 05:18:25;;;;;;;;;;;;;;;;;;2114733;28;19930;-55
2021/10/10 05:19:25;;;;;;;;;;;;;;;;;;2114825;28;19927;-54
2021/10/10 05:20:26;;;;;;;;;;;;;;;;;;2114611;28;19924;-55
2021/10/10 05:21:27;;;;;;;;;;;;;;;;;;2114681;28;19924;-54
2021/10/10 05:22:28;;;;;;;;;;;;;;;;;;2114575;28;19924;-54
2021/10/10 05:23:29;;;;;;;;;;;;;;;;;;2114756;28;20338;-54
2021/10/10 05:24:30;;;;;;;;;;;;;;;;;;2114724;28;20384;-53
2021/10/10 05:25:30;;;;;;;;;;;;;;;;;;2114582;28;19924;-55
2021/10/10 05:26:31;;;;;;;;;;;;;;;;;;2114644;28;20147;-54
2021/10/10 05:27:32;;;;;;;;;;;;;;;;;;2114694;28;19928;-55
2021/10/10 05:28:33;;;;;;;;;;;;;;;;;;2114779;28;19924;-55
2021/10/10 05:29:33;;;;;;;;;;;;;;;;;;2114511;28;19923;-54
2021/10/10 05:30:34;;;;;;;;;;;;;;;;;;2114634;28;19993;-54
2021/10/10 05:31:35;;;;;;;;;;;;;;;;;;2114501;28;19924;-55
2021/10/10 05:32:36;;;;;;;;;;;;;;;;;;2114609;28;19947;-55
2021/10/10 05:33:37;;;;;;;;;;;;;;;;;;2114586;28;19927;-54
2021/10/10 05:34:38;;;;;;;;;;;;;;;;;;2114559;28;19924;-55
2021/10/10 05:35:38;;;;;;;;;;;;;;;;;;2114724;28;20380;-45
2021/10/10 05:36:39;;;;;;;;;;;;;;;;;;2114646;28;19928;-45
2021/10/10 05:37:40;;;;;;;;;;;;;;;;;;2114641;28;19924;-45
2021/10/10 05:38:41;;;;;;;;;;;;;;;;;;2114612;28;19924;-45
2021/10/10 05:39:42;;;;;;;;;;;;;;;;;;2114518;28;19939;-45
2021/10/10 05:40:43;;;;;;;;;;;;;;;;;;2114373;28;19924;-46
2021/10/10 05:41:43;;;;;;;;;;;;;;;;;;2114617;28;20015;-45
2021/10/10 05:42:45;;;;;;;;;;;;;;;;;;2114589;28;19930;-46
2021/10/10 05:43:46;;;;;;;;;;;;;;;;;;2114461;28;19931;-45
2021/10/10 05:44:47;;;;;;;;;;;;;;;;;;2114555;28;20035;-45
2021/10/10 05:45:49;;;;;;;;;;;;;;;;;;2114655;28;20014;-45
2021/10/10 05:46:50;;;;;;;;;;;;;;;;;;2114434;28;20015;-45
2021/10/10 05:47:51;;;;;;;;;;;;;;;;;;2114888;28;19930;-45
2021/10/10 05:48:52;;;;;;;;;;;;;;;;;;2114557;28;20292;-45
2021/10/10 05:49:52;;;;;;;;;;;;;;;;;;2114680;28;19924;-46
2021/10/10 05:50:53;;;;;;;;;;;;;;;;;;2114317;28;19924;-45
2021/10/10 05:51:58;;;;;;;;;;;;;;;;;;2114579;28;20007;-45
2021/10/10 05:53:06;;;;;;;;;;;;;;;;;;2114482;28;20006;-45
2021/10/10 05:54:10;;;;;;;;;;;;;;;;;;2114496;28;19930;-46
2021/10/10 05:55:13;;;;;;;;;;;;;;;;;;2114352;28;20083;-45
2021/10/10 05:56:16;;;;;;;;;;;;;;;;;;2114395;28;20439;-46
2021/10/10 05:57:20;;;;;;;;;;;;;;;;;;2114295;28;20412;-45
2021/10/10 05:58:21;;;;;;;;;;;;;;;;;;2114354;28;19973;-46
2021/10/10 05:59:22;;;;;;;;;;;;;;;;;;2114428;28;19923;-45
2021/10/10 06:00:23;;;;;;;;;;;;;;;;;;2114563;28;20384;-45
2021/10/10 06:01:24;;;;;;;;;;;;;;;;;;2114341;28;20021;-45
2021/10/10 06:02:25;;;;;;;;;;;;;;;;;;2114424;28;19923;-45
2021/10/10 06:03:26;;;;;;;;;;;;;;;;;;2114440;28;20281;-45
2021/10/10 06:04:30;;;;;;;;;;;;;;;;;;2114556;28;19962;-45
2021/10/10 06:05:31;;;;;;;;;;;;;;;;;;2113905;28;19930;-46
2021/10/10 06:06:32;;;;;;;;;;;;;;;;;;2114647;28;19923;-45
2021/10/10 06:07:33;;;;;;;;;;;;;;;;;;2114178;28;19927;-45
2021/10/10 06:08:34;;;;;;;;;;;;;;;;;;2114494;28;19924;-45
2021/10/10 06:09:34;;;;;;;;;;;;;;;;;;2114351;28;19928;-45
2021/10/10 06:10:35;;;;;;;;;;;;;;;;;;2114675;28;20311;-45
2021/10/10 06:11:36;;;;;;;;;;;;;;;;;;2114313;28;19924;-46
2021/10/10 06:12:37;;;;;;;;;;;;;;;;;;2114498;28;19924;-45
2021/10/10 06:13:38;;;;;;;;;;;;;;;;;;2114321;28;19923;-45
2021/10/10 06:14:38;;;;;;;;;;;;;;;;;;2114705;28;20265;-45
2021/10/10 06:15:39;;;;;;;;;;;;;;;;;;2114415;28;19928;-45
2021/10/10 06:16:40;;;;;;;;;;;;;;;;;;2114242;28;19924;-45
2021/10/10 06:17:41;;;;;;;;;;;;;;;;;;2114373;28;19931;-45
2021/10/10 06:18:42;;;;;;;;;;;;;;;;;;2114461;28;19931;-45
2021/10/10 06:19:43;;;;;;;;;;;;;;;;;;2114431;28;19952;-45
2021/10/10 06:20:44;;;;;;;;;;;;;;;;;;2114258;28;19955;-46
2021/10/10 06:21:45;;;;;;;;;;;;;;;;;;2114174;28;20368;-45
2021/10/10 06:22:45;;;;;;;;;;;;;;;;;;2114466;28;20364;-45
2021/10/10 06:23:46;;;;;;;;;;;;;;;;;;2114297;28;19924;-46
2021/10/10 06:24:47;;;;;;;;;;;;;;;;;;2114357;28;19977;-45
2021/10/10 06:25:48;;;;;;;;;;;;;;;;;;2114110;28;19935;-46
2021/10/10 06:26:48;;;;;;;;;;;;;;;;;;2114310;28;20378;-45
2021/10/10 06:27:49;;;;;;;;;;;;;;;;;;2114474;28;19950;-45
2021/10/10 06:28:50;;;;;;;;;;;;;;;;;;2114138;28;19924;-45
2021/10/10 06:29:51;;;;;;;;;;;;;;;;;;2114342;28;19976;-45
2021/10/10 06:30:52;;;;;;;;;;;;;;;;;;2113931;28;19923;-45
2021/10/10 06:31:53;;;;;;;;;;;;;;;;;;2114385;28;19923;-45
2021/10/10 06:32:53;;;;;;;;;;;;;;;;;;2114201;28;20392;-45
2021/10/10 06:33:54;;;;;;;;;;;;;;;;;;2114438;28;19962;-45
2021/10/10 06:34:55;;;;;;;;;;;;;;;;;;2113957;28;20381;-45
2021/10/10 06:35:56;;;;;;;;;;;;;;;;;;2114378;28;19957;-45
2021/10/10 06:36:57;;;;;;;;;;;;;;;;;;2114040;28;19930;-45
2021/10/10 06:37:58;;;;;;;;;;;;;;;;;;2114439;28;20053;-45
2021/10/10 06:38:58;;;;;;;;;;;;;;;;;;2114149;28;19924;-45
2021/10/10 06:39:59;;;;;;;;;;;;;;;;;;2114215;28;19928;-45
2021/10/10 06:41:00;;;;;;;;;;;;;;;;;;2113817;28;19924;-47
2021/10/10 06:42:01;;;;;;;;;;;;;;;;;;2114303;28;19923;-45
2021/10/10 06:43:02;;;;;;;;;;;;;;;;;;2113906;28;19931;-45
2021/10/10 06:44:03;;;;;;;;;;;;;;;;;;2114368;28;20372;-45
2021/10/10 06:45:04;;;;;;;;;;;;;;;;;;2113991;28;19973;-45
2021/10/10 06:46:04;;;;;;;;;;;;;;;;;;2114155;28;19938;-45
2021/10/10 06:47:05;;;;;;;;;;;;;;;;;;2114089;28;19931;-45
2021/10/10 06:48:06;;;;;;;;;;;;;;;;;;2114263;28;19924;-45
2021/10/10 06:49:07;;;;;;;;;;;;;;;;;;2114047;28;19923;-45
2021/10/10 06:50:08;;;;;;;;;;;;;;;;;;2114326;28;19930;-45
2021/10/10 06:51:09;;;;;;;;;;;;;;;;;;2113911;28;19923;-45
2021/10/10 06:52:09;;;;;;;;;;;;;;;;;;2114086;28;19935;-45
2021/10/10 06:53:10;;;;;;;;;;;;;;;;;;2114077;28;19934;-45
2021/10/10 06:54:11;;;;;;;;;;;;;;;;;;2114133;28;19932;-44
2021/10/10 06:55:15;;;;;;;;;;;;;;;;;;2114282;28;19955;-45
2021/10/10 06:56:16;;;;;;;;;;;;;;;;;;2113985;28;20443;-45